PWSweather.com
Personal Weather Stations
Station Observations
WISCHPK61
Green Bay Schmitt Park, Green Bay, WI 54311

Green Bay Schmitt ParkGreen Bay, WI 54311

Lat: 44.514277, Lon: -87.935067

Elevation: 735

Station Type: Acu Rite Pro Weather Center model 02032C

http://greenbayweathercam.com

High Low Average
Temperature 52.2°F11.2°C 41.4°F5.2°C 44.5°F6.9°C
Dew Point 51.9°F11.1°C 39.9°F4.4°C 43.7°F6.5°C
Winds Calm Calm Calm Calm Calm SCalm S
Wind Gusts -- -- --
Humidity 99% 85% 97%
Pressure 29.47 in998.0 mb 29.34 in993.6 mb -
Precipitation 0.07 in1.8 mm - -
Hour Temp Dew Point Humidity Winds Wind Gusts Pressure Precip Precip Rate Daily Precip Total
12:00 AM 43.2°F6.2°C 42.9°F6.1°C 99% Calm Calm -- 29.37 in994.6 mb - 0.00 in0.0 mm 0.00 in0.0 mm
01:00 AM 44.1°F6.7°C 39.9°F4.4°C 85% Calm Calm -- 29.38 in994.9 mb - 0.00 in0.0 mm 0.00 in0.0 mm
02:00 AM 43.9°F6.6°C 43.6°F6.4°C 99% Calm Calm -- 29.38 in994.9 mb - 0.00 in0.0 mm 0.00 in0.0 mm
03:00 AM 41.4°F5.2°C 41.1°F5.1°C 99% Calm Calm -- 29.39 in995.3 mb - 0.00 in0.0 mm 0.00 in0.0 mm
04:00 AM 41.5°F5.3°C 41.2°F5.1°C 99% Calm Calm -- 29.38 in994.9 mb - 0.00 in0.0 mm 0.00 in0.0 mm
05:00 AM 41.4°F5.2°C 41.1°F5.1°C 99% Calm Calm -- 29.37 in994.6 mb - 0.00 in0.0 mm 0.00 in0.0 mm
06:00 AM 41.4°F5.2°C 41.1°F5.1°C 99% Calm Calm -- 29.38 in994.9 mb - 0.00 in0.0 mm 0.00 in0.0 mm
07:00 AM 41.7°F5.4°C 41.4°F5.2°C 99% Calm Calm -- 29.39 in995.3 mb - 0.00 in0.0 mm 0.00 in0.0 mm
08:00 AM 43.9°F6.6°C 43.4°F6.3°C 98% Calm Calm -- 29.41 in995.9 mb - 0.00 in0.0 mm 0.00 in0.0 mm
09:00 AM 45.0°F7.2°C 44.7°F7.1°C 99% Calm Calm -- 29.43 in996.6 mb - 0.00 in0.0 mm 0.00 in0.0 mm
10:00 AM 45.3°F7.4°C 45.0°F7.2°C 99% Calm Calm -- 29.45 in997.3 mb - 0.00 in0.0 mm 0.00 in0.0 mm
11:00 AM 46.8°F8.2°C 46.0°F7.8°C 97% Calm Calm -- 29.46 in997.6 mb - 0.00 in0.0 mm 0.00 in0.0 mm
12:00 PM 46.8°F8.2°C 46.3°F7.9°C 98% Calm Calm -- 29.47 in998.0 mb - 0.01 in0.3 mm 0.01 in0.3 mm
01:00 PM 46.9°F8.3°C 46.6°F8.1°C 99% Calm Calm -- 29.43 in996.6 mb - 0.04 in1.0 mm 0.05 in1.3 mm
02:00 PM 52.2°F11.2°C 51.9°F11.1°C 99% Calm Calm -- 29.38 in994.9 mb - 0.00 in0.0 mm 0.05 in1.3 mm
03:00 PM 48.0°F8.9°C 47.7°F8.7°C 99% Calm Calm -- 29.39 in995.3 mb - 0.00 in0.0 mm 0.05 in1.3 mm
04:00 PM 47.8°F8.8°C 47.5°F8.6°C 99% Calm Calm -- 29.38 in994.9 mb - 0.00 in0.0 mm 0.05 in1.3 mm
05:00 PM 46.1°F7.8°C 42.7°F5.9°C 88% Calm Calm -- 29.37 in994.6 mb - 0.02 in0.5 mm 0.07 in1.8 mm
06:00 PM 44.8°F7.1°C 44.5°F6.9°C 99% Calm Calm -- 29.36 in994.2 mb - 0.00 in0.0 mm 0.07 in1.8 mm
07:00 PM 44.2°F6.8°C 44.0°F6.7°C 99% Calm Calm -- 29.35 in993.9 mb - 0.00 in0.0 mm 0.07 in1.8 mm
08:00 PM 43.2°F6.2°C 41.6°F5.3°C 94% Calm Calm -- 29.34 in993.6 mb - 0.00 in0.0 mm 0.07 in1.8 mm
09:00 PM 43.0°F6.1°C 41.4°F5.2°C 94% Calm Calm -- 29.35 in993.9 mb - 0.00 in0.0 mm 0.07 in1.8 mm
10:00 PM 43.0°F6.1°C 42.5°F5.8°C 98% Calm Calm -- 29.37 in994.6 mb - 0.00 in0.0 mm 0.07 in1.8 mm
11:00 PM 42.4°F5.8°C 42.1°F5.6°C 99% Calm Calm -- 29.36 in994.2 mb - 0.00 in0.0 mm 0.07 in1.8 mm